Departure ICAO
Arrival ICAO

The revolutionary moving map for travelling passengers has finally arrived
More information here

LFMD Cannes Mandelieu - EGKB London Biggin Hill


Distance 545 NM


LFMN Nice Cote D'Azur VFR CAVOK

METAR LFMN 231800Z VRB02KT CAVOK 15/07 Q1022 NOSIG

TAF LFMN 231400Z 2315/2421 18005KT CAVOK BECMG 2320/2322 34010KT BECMG 2408/2410 16005KT PROB30 TEMPO 2415/2421 3000 BR BKN007


LFMD Cannes Mandelieu VFR CAVOK

METAR LFMD 231800Z AUTO 00000KT CAVOK 15/05 Q1022 NOSIG

TAF LFMD 231400Z 2315/2415 15005KT CAVOK BECMG 2318/2320 35005KT BECMG 2409/2411 16010KT


LFLB Chambery Aix Les Bains VFR CAVOK

METAR LFLB 231800Z AUTO 31004KT 280V350 CAVOK 15/02 Q1024 NOSIG

TAF LFLB 231700Z 2318/2418 33005KT CAVOK BECMG 2318/2321 VRB03KT PROB40 TEMPO 2403/2408 3000 BR PROB30 TEMPO 2405/2408 0700 BCFG


LFLS Grenoble Saint Geoirs VFR CAVOK

METAR LFLS 231800Z AUTO 31004KT 280V340 CAVOK 15/02 Q1025 NOSIG

TAF LFLS 231400Z 2315/2415 35006KT CAVOK BECMG 2318/2320 VRB03KT PROB30 TEMPO 2403/2407 4000 BR BECMG 2410/2412 34008KT


LFLL Lyon Saint Exupery VFR CAVOK

METAR LFLL 231800Z 35010KT CAVOK 16/03 Q1024 NOSIG

TAF LFLL 231700Z 2318/2424 35012KT CAVOK BECMG 2400/2402 VRB02KT PROB40 TEMPO 2403/2409 3000 BR PROB30 TEMPO 2405/2409 0800 FG OVC002 BECMG 2410/2412 33014KT


LFLY Lyon Bron VFR CAVOK

METAR LFLY 231800Z AUTO 02007KT CAVOK 16/04 Q1024 NOSIG

TAF LFLY 231700Z 2318/2418 35006KT CAVOK TEMPO 2402/2410 VRB03KT PROB30 TEMPO 2403/2407 4000 BR


LFLN Saint Yan VFR CAVOK

METAR LFLN 231800Z AUTO 32004KT CAVOK 15/05 Q1025 NOSIG

TAF AMD LFLN 231801Z 2318/2403 32004KT CAVOK BECMG 2321/2324 VRB02KT 4500 BR BECMG 2400/2402 2000 BKN004


LFPM Melun Villaroche VFR

METAR LFPM 231800Z AUTO 01005KT 9000 NSC 10/05 Q1029


LFPO Paris Orly VFR

METAR LFPO 231800Z 03011KT 9999 SCT033 10/05 Q1029 NOSIG

TAF LFPO 231700Z 2318/2424 01008KT 9999 BKN030 TEMPO 2401/2409 3000 BR BKN006 PROB40 TEMPO 2403/2408 0600 BCFG BKN002 BECMG 2416/2418 CAVOK


LFPG Paris Charles De Gaulle VFR

METAR LFPG 231800Z 05007KT 8000 BKN026 11/05 Q1029 NOSIG

TAF LFPG 231700Z 2318/2424 02006KT 8000 BKN020 TX13/2414Z TN06/2404Z BECMG 2400/2402 3000 BR BKN003 PROB40 TEMPO 2402/2405 0600 BCFG BKN002 BECMG 2406/2408 6000 NSW BKN006 BECMG 2408/2410 BKN020


LFPB Paris Le Bourget VFR

METAR LFPB 231800Z AUTO 04009KT 9000 OVC030 11/05 Q1029 NOSIG

TAF LFPB 231700Z 2318/2418 02006KT 8000 BKN030 BECMG 2400/2402 3000 BR BKN003 PROB40 TEMPO 2402/2405 0600 BCFG BKN002 BECMG 2406/2408 6000 NSW BKN006 BECMG 2408/2410 BKN020


LFPV Villacoublay Velizy VFR

METAR LFPV 231800Z AUTO 03008KT 9999 BKN030 BKN035 10/05 Q1029 NOSIG

TAF LFPV 231400Z 2315/2415 01005KT 9999 BKN025 BECMG 2402/2404 3000 BR TEMPO 2404/2408 1500 BR OVC004 BECMG 2408/2410 9999 NSW


LFPN Toussous Le Noble VFR

METAR LFPN 231800Z AUTO 03009KT 9999 BKN030 BKN036 11/05 Q1029 NOSIG

TAF LFPN 231700Z 2318/2403 01008KT 9999 NSW BKN030 TEMPO 2323/2403 3000 BR BKN006 PROB40 TEMPO 2401/2403 0600 BCFG BKN002


LFPT Pontoise Cormeilles En Vexin VFR

METAR LFPT 231800Z AUTO 04006KT 9000 FEW028 OVC034 11/07 Q1029


LFOB Beauvais Tille VFR

METAR LFOB 231800Z AUTO 02004KT 7000 OVC037 10/07 Q1030 NOSIG

TAF LFOB 231700Z 2318/2418 02008KT 7000 OVC025 TEMPO 2323/2409 4000 RA OVC008


LFAT Le Tourquet Paris Plage VFR

METAR LFAT 231800Z AUTO 05009KT 9999 OVC040/// 10/05 Q1031 NOSIG

TAF LFAT 231400Z 2315/2324 33007KT 4000 BR BKN018 BECMG 2315/2318 05010KT 9999 NSW


EGMD Lydd VFR

METAR EGMD 231750Z 08015KT 9999 SCT040 09/06 Q1032

TAF EGMD 231701Z 2318/2403 06012KT 9999 SCT040


EGKA Shoreham By Sea Shoreham VFR

METAR EGKA 231750Z 09008KT 9999 BKN045 11/06 Q1031

TAF EGKA 231358Z 2315/2319 07008KT 9999 SCT030


EGKB London Biggin Hill VFR

METAR EGKB 231750Z 07007KT 9999 FEW032 08/05 Q1032

TAF EGKB 231701Z 2318/2322 08008KT 9999 FEW045


EGKK London Gatwick VFR CAVOK

METAR EGKK 231750Z 09007KT CAVOK 10/05 Q1031

TAF EGKK 231700Z 2318/2424 08006KT 9999 SCT040 PROB30 2400/2407 8000 BECMG 2408/2411 32010KT


EGLC London City VFR

METAR EGLC 231750Z AUTO 08010KT 9999 FEW033 SCT047 10/05 Q1032


EGSS London Stansted VFR

METAR EGSS 231750Z AUTO 14008KT 130V290 9999 FEW047 08/04 Q1032

TAF EGSS 231704Z 2318/2424 05010KT 9999 FEW038 BECMG 2320/2323 VRB03KT PROB40 2402/2408 6000 BECMG 2410/2413 31010KT


EGLL London Heathrow VFR

METAR EGLL 231750Z AUTO 05005KT 010V080 9999 BKN047 12/03 Q1032 NOSIG

TAF EGLL 231658Z 2318/2424 08008KT 9999 FEW045 BECMG 2403/2406 33010KT PROB30 TEMPO 2403/2408 8000 BECMG 2418/2421 27008KT


EGWU Northolt VFR

METAR EGWU 231750Z 06007KT 9999 FEW045 BKN250 11/02 Q1031 BLU NOSIG

TAF EGWU 231641Z 2318/2412 08005KT 9999 FEW045 PROB30 2404/2407 7000 HZ


EGLF London Farnborough VFR

METAR EGLF 231750Z AUTO 06008KT 9999 OVC046/// 11/03 Q1031

TAF EGLF 231701Z 2318/2320 05008KT 9999 SCT045



NOTAMS LFMD

 NOTAMS EGKB